sensor_id;sensor_type;location;lat;lon;timestamp;pressure;altitude;pressure_sealevel;temperature;humidity
21803;BME280;18591;47.080;22.214;2023-08-30T00:00:42;98410.56;;;26.04;55.72
21803;BME280;18591;47.080;22.214;2023-08-30T00:02:45;98398.88;;;26.02;55.93
21803;BME280;18591;47.080;22.214;2023-08-30T00:04:47;98403.16;;;26.04;55.57
21803;BME280;18591;47.080;22.214;2023-08-30T00:06:50;98412.38;;;26.12;55.65
21803;BME280;18591;47.080;22.214;2023-08-30T00:08:53;98419.25;;;26.16;55.09
21803;BME280;18591;47.080;22.214;2023-08-30T00:10:55;98423.09;;;26.06;55.75
21803;BME280;18591;47.080;22.214;2023-08-30T00:13:00;98418.81;;;26.04;55.47
21803;BME280;18591;47.080;22.214;2023-08-30T00:15:03;98418.72;;;25.97;55.77
21803;BME280;18591;47.080;22.214;2023-08-30T00:17:06;98413.94;;;25.91;55.98
21803;BME280;18591;47.080;22.214;2023-08-30T00:19:08;98413.75;;;25.93;56.04
21803;BME280;18591;47.080;22.214;2023-08-30T00:21:13;98421.63;;;25.96;55.98
21803;BME280;18591;47.080;22.214;2023-08-30T00:23:15;98423.34;;;25.97;55.72
21803;BME280;18591;47.080;22.214;2023-08-30T00:25:19;98426.22;;;26.03;55.60
21803;BME280;18591;47.080;22.214;2023-08-30T00:27:21;98425.38;;;26.03;56.01
21803;BME280;18591;47.080;22.214;2023-08-30T00:29:24;98429.16;;;26.02;55.52
21803;BME280;18591;47.080;22.214;2023-08-30T00:31:26;98425.25;;;25.96;55.69
21803;BME280;18591;47.080;22.214;2023-08-30T00:33:29;98436.06;;;25.98;55.88
21803;BME280;18591;47.080;22.214;2023-08-30T00:35:31;98434.31;;;26.05;55.55
21803;BME280;18591;47.080;22.214;2023-08-30T00:37:34;98436.47;;;26.10;54.89
21803;BME280;18591;47.080;22.214;2023-08-30T00:39:39;98439.06;;;26.11;55.19
21803;BME280;18591;47.080;22.214;2023-08-30T00:41:42;98444.19;;;26.14;55.09
21803;BME280;18591;47.080;22.214;2023-08-30T00:43:44;98451.22;;;26.17;54.77
21803;BME280;18591;47.080;22.214;2023-08-30T00:45:47;98447.25;;;26.19;55.11
21803;BME280;18591;47.080;22.214;2023-08-30T00:47:51;98443.63;;;26.19;54.59
21803;BME280;18591;47.080;22.214;2023-08-30T00:49:54;98447.91;;;26.21;55.04
21803;BME280;18591;47.080;22.214;2023-08-30T00:52:09;98433.19;;;26.14;55.11
21803;BME280;18591;47.080;22.214;2023-08-30T00:54:12;98438.13;;;26.19;54.38
21803;BME280;18591;47.080;22.214;2023-08-30T00:56:15;98434.16;;;26.21;54.46
21803;BME280;18591;47.080;22.214;2023-08-30T00:58:18;98421.25;;;26.22;53.85
21803;BME280;18591;47.080;22.214;2023-08-30T01:00:20;98431.88;;;26.25;54.01
21803;BME280;18591;47.080;22.214;2023-08-30T01:02:23;98429.13;;;26.25;54.08
21803;BME280;18591;47.080;22.214;2023-08-30T01:04:27;98435.38;;;26.19;54.20
21803;BME280;18591;47.080;22.214;2023-08-30T01:06:29;98426.28;;;26.18;53.91
21803;BME280;18591;47.080;22.214;2023-08-30T01:08:33;98428.81;;;26.20;53.89
21803;BME280;18591;47.080;22.214;2023-08-30T01:10:52;98428.34;;;26.16;53.77
21803;BME280;18591;47.080;22.214;2023-08-30T01:13:03;98433.00;;;26.16;53.83
21803;BME280;18591;47.080;22.214;2023-08-30T01:15:15;98438.69;;;26.14;54.39
21803;BME280;18591;47.080;22.214;2023-08-30T01:17:21;98439.72;;;26.13;54.13
21803;BME280;18591;47.080;22.214;2023-08-30T01:19:59;98441.34;;;26.08;54.85
21803;BME280;18591;47.080;22.214;2023-08-30T01:22:14;98444.25;;;26.06;54.88
21803;BME280;18591;47.080;22.214;2023-08-30T01:24:28;98433.31;;;25.98;54.25
21803;BME280;18591;47.080;22.214;2023-08-30T01:29:00;98430.19;;;26.01;55.19
21803;BME280;18591;47.080;22.214;2023-08-30T01:34:51;98424.09;;;25.91;54.49
21803;BME280;18591;47.080;22.214;2023-08-30T01:36:54;98418.59;;;25.91;54.80
21803;BME280;18591;47.080;22.214;2023-08-30T01:39:01;98418.59;;;25.91;54.54
21803;BME280;18591;47.080;22.214;2023-08-30T01:41:04;98419.25;;;25.93;54.29
21803;BME280;18591;47.080;22.214;2023-08-30T01:43:07;98411.84;;;25.93;54.51
21803;BME280;18591;47.080;22.214;2023-08-30T01:45:10;98412.69;;;25.94;54.30
21803;BME280;18591;47.080;22.214;2023-08-30T01:47:16;98408.44;;;25.91;54.46
21803;BME280;18591;47.080;22.214;2023-08-30T01:49:19;98410.31;;;25.91;53.92
21803;BME280;18591;47.080;22.214;2023-08-30T01:51:23;98408.63;;;25.90;53.74
21803;BME280;18591;47.080;22.214;2023-08-30T01:53:27;98409.28;;;25.92;53.90
21803;BME280;18591;47.080;22.214;2023-08-30T01:55:32;98417.91;;;25.89;54.20
21803;BME280;18591;47.080;22.214;2023-08-30T01:57:34;98416.19;;;25.88;53.80
21803;BME280;18591;47.080;22.214;2023-08-30T01:59:37;98417.06;;;25.88;54.28
21803;BME280;18591;47.080;22.214;2023-08-30T02:01:40;98411.94;;;25.85;54.58
21803;BME280;18591;47.080;22.214;2023-08-30T02:03:46;98409.84;;;25.79;54.29
21803;BME280;18591;47.080;22.214;2023-08-30T02:06:00;98407.47;;;25.76;54.54
21803;BME280;18591;47.080;22.214;2023-08-30T02:08:15;98405.94;;;25.73;54.83
21803;BME280;18591;47.080;22.214;2023-08-30T02:10:27;98416.09;;;25.73;54.10
21803;BME280;18591;47.080;22.214;2023-08-30T02:12:39;98411.44;;;25.73;54.20
21803;BME280;18591;47.080;22.214;2023-08-30T02:14:48;98416.84;;;25.67;54.29
21803;BME280;18591;47.080;22.214;2023-08-30T02:16:52;98400.81;;;25.70;54.20
21803;BME280;18591;47.080;22.214;2023-08-30T02:18:57;98401.50;;;25.72;54.39
21803;BME280;18591;47.080;22.214;2023-08-30T02:20:59;98405.47;;;25.70;54.20
21803;BME280;18591;47.080;22.214;2023-08-30T02:23:02;98406.50;;;25.69;54.33
21803;BME280;18591;47.080;22.214;2023-08-30T02:25:15;98412.19;;;25.67;54.21
21803;BME280;18591;47.080;22.214;2023-08-30T02:27:18;98415.47;;;25.62;54.61
21803;BME280;18591;47.080;22.214;2023-08-30T02:29:23;98405.69;;;25.60;54.21
21803;BME280;18591;47.080;22.214;2023-08-30T02:31:26;98400.19;;;25.60;54.17
21803;BME280;18591;47.080;22.214;2023-08-30T02:33:28;98406.75;;;25.59;55.10
21803;BME280;18591;47.080;22.214;2023-08-30T02:35:31;98405.56;;;25.53;54.75
21803;BME280;18591;47.080;22.214;2023-08-30T02:37:33;98410.03;;;25.54;55.03
21803;BME280;18591;47.080;22.214;2023-08-30T02:39:36;98396.66;;;25.51;54.97
21803;BME280;18591;47.080;22.214;2023-08-30T02:41:38;98395.97;;;25.49;54.78
21803;BME280;18591;47.080;22.214;2023-08-30T02:43:44;98397.69;;;25.50;55.06
21803;BME280;18591;47.080;22.214;2023-08-30T02:45:47;98384.78;;;25.51;54.46
21803;BME280;18591;47.080;22.214;2023-08-30T02:47:49;98388.41;;;25.51;54.61
21803;BME280;18591;47.080;22.214;2023-08-30T02:49:54;98397.50;;;25.52;55.00
21803;BME280;18591;47.080;22.214;2023-08-30T02:51:56;98397.19;;;25.47;54.94
21803;BME280;18591;47.080;22.214;2023-08-30T02:53:58;98396.69;;;25.43;54.97
21803;BME280;18591;47.080;22.214;2023-08-30T02:56:01;98400.50;;;25.42;55.10
21803;BME280;18591;47.080;22.214;2023-08-30T02:58:03;98407.69;;;25.43;54.67
21803;BME280;18591;47.080;22.214;2023-08-30T03:00:07;98409.41;;;25.44;54.58
21803;BME280;18591;47.080;22.214;2023-08-30T03:02:10;98411.00;;;25.38;54.44
21803;BME280;18591;47.080;22.214;2023-08-30T03:04:13;98415.28;;;25.41;54.68
21803;BME280;18591;47.080;22.214;2023-08-30T03:06:16;98404.09;;;25.42;54.39
21803;BME280;18591;47.080;22.214;2023-08-30T03:08:18;98405.13;;;25.41;54.48
21803;BME280;18591;47.080;22.214;2023-08-30T03:10:21;98401.22;;;25.36;54.44
21803;BME280;18591;47.080;22.214;2023-08-30T03:12:23;98390.75;;;25.31;54.95
21803;BME280;18591;47.080;22.214;2023-08-30T03:14:26;98387.38;;;25.21;55.00
21803;BME280;18591;47.080;22.214;2023-08-30T03:16:29;98388.72;;;25.25;54.98
21803;BME280;18591;47.080;22.214;2023-08-30T03:18:32;98380.13;;;25.28;54.76
21803;BME280;18591;47.080;22.214;2023-08-30T03:20:35;98380.47;;;25.25;54.84
21803;BME280;18591;47.080;22.214;2023-08-30T03:22:37;98380.47;;;25.25;54.71
21803;BME280;18591;47.080;22.214;2023-08-30T03:24:40;98389.28;;;25.20;54.79
21803;BME280;18591;47.080;22.214;2023-08-30T03:26:43;98385.50;;;25.13;54.94
21803;BME280;18591;47.080;22.214;2023-08-30T03:28:46;98386.88;;;25.09;55.31
21803;BME280;18591;47.080;22.214;2023-08-30T03:30:49;98390.13;;;24.82;56.20
21803;BME280;18591;47.080;22.214;2023-08-30T03:32:53;98390.13;;;24.73;56.44
21803;BME280;18591;47.080;22.214;2023-08-30T03:34:55;98381.34;;;24.78;56.21
21803;BME280;18591;47.080;22.214;2023-08-30T03:36:58;98378.13;;;24.74;56.46
21803;BME280;18591;47.080;22.214;2023-08-30T03:39:00;98374.16;;;24.77;56.32
21803;BME280;18591;47.080;22.214;2023-08-30T03:41:03;98378.97;;;24.75;56.11
21803;BME280;18591;47.080;22.214;2023-08-30T03:43:08;98376.72;;;24.78;56.33
21803;BME280;18591;47.080;22.214;2023-08-30T03:45:12;98384.94;;;24.78;56.31
21803;BME280;18591;47.080;22.214;2023-08-30T03:47:15;98383.31;;;24.53;57.59
21803;BME280;18591;47.080;22.214;2023-08-30T03:49:18;98383.84;;;24.57;57.22
21803;BME280;18591;47.080;22.214;2023-08-30T03:51:21;98387.78;;;24.62;56.72
21803;BME280;18591;47.080;22.214;2023-08-30T03:53:24;98387.78;;;24.62;57.07
21803;BME280;18591;47.080;22.214;2023-08-30T03:55:27;98392.75;;;24.67;57.26
21803;BME280;18591;47.080;22.214;2023-08-30T03:57:31;98395.50;;;24.59;57.61
21803;BME280;18591;47.080;22.214;2023-08-30T03:59:33;98391.38;;;24.54;57.61
21803;BME280;18591;47.080;22.214;2023-08-30T04:01:36;98392.59;;;24.52;57.74
21803;BME280;18591;47.080;22.214;2023-08-30T04:03:39;98394.16;;;24.46;57.95
21803;BME280;18591;47.080;22.214;2023-08-30T04:05:42;98404.28;;;24.46;57.66
21803;BME280;18591;47.080;22.214;2023-08-30T04:07:45;98403.25;;;24.39;58.26
21803;BME280;18591;47.080;22.214;2023-08-30T04:09:50;98402.72;;;24.35;58.73
21803;BME280;18591;47.080;22.214;2023-08-30T04:11:53;98399.31;;;24.33;58.44
21803;BME280;18591;47.080;22.214;2023-08-30T04:13:55;98407.53;;;24.25;58.94
21803;BME280;18591;47.080;22.214;2023-08-30T04:15:58;98406.53;;;24.26;58.62
21803;BME280;18591;47.080;22.214;2023-08-30T04:18:02;98411.31;;;24.16;59.23
21803;BME280;18591;47.080;22.214;2023-08-30T04:20:06;98413.03;;;24.08;59.89
21803;BME280;18591;47.080;22.214;2023-08-30T04:22:09;98414.22;;;24.14;58.95
21803;BME280;18591;47.080;22.214;2023-08-30T04:24:12;98424.38;;;24.05;59.23
21803;BME280;18591;47.080;22.214;2023-08-30T04:26:14;98427.97;;;23.89;60.11
21803;BME280;18591;47.080;22.214;2023-08-30T04:28:17;98424.19;;;23.90;59.67
21803;BME280;18591;47.080;22.214;2023-08-30T04:30:19;98422.47;;;24.06;58.71
21803;BME280;18591;47.080;22.214;2023-08-30T04:32:22;98429.50;;;23.92;59.61
21803;BME280;18591;47.080;22.214;2023-08-30T04:34:25;98428.13;;;23.88;59.42
21803;BME280;18591;47.080;22.214;2023-08-30T04:36:28;98423.94;;;23.67;60.29
21803;BME280;18591;47.080;22.214;2023-08-30T04:38:30;98427.03;;;23.64;60.38
21803;BME280;18591;47.080;22.214;2023-08-30T04:40:33;98434.09;;;23.75;59.64
21803;BME280;18591;47.080;22.214;2023-08-30T04:42:37;98444.19;;;23.66;60.16
21803;BME280;18591;47.080;22.214;2023-08-30T04:44:42;98436.97;;;23.65;60.07
21803;BME280;18591;47.080;22.214;2023-08-30T04:46:44;98428.94;;;23.64;60.79
21803;BME280;18591;47.080;22.214;2023-08-30T04:48:47;98424.47;;;23.71;60.42
21803;BME280;18591;47.080;22.214;2023-08-30T04:51:01;98419.72;;;23.73;60.31
21803;BME280;18591;47.080;22.214;2023-08-30T04:53:05;98422.06;;;23.68;60.32
21803;BME280;18591;47.080;22.214;2023-08-30T04:55:07;98435.25;;;23.56;60.92
21803;BME280;18591;47.080;22.214;2023-08-30T04:57:11;98431.97;;;23.61;60.44
21803;BME280;18591;47.080;22.214;2023-08-30T04:59:16;98428.94;;;23.64;60.96
21803;BME280;18591;47.080;22.214;2023-08-30T05:01:21;98429.44;;;23.59;61.30
21803;BME280;18591;47.080;22.214;2023-08-30T05:03:27;98423.50;;;23.72;60.30
21803;BME280;18591;47.080;22.214;2023-08-30T05:05:33;98424.34;;;23.73;60.27
21803;BME280;18591;47.080;22.214;2023-08-30T05:07:36;98420.75;;;23.72;60.36
21803;BME280;18591;47.080;22.214;2023-08-30T05:09:39;98428.13;;;23.80;60.16
21803;BME280;18591;47.080;22.214;2023-08-30T05:11:43;98423.00;;;23.85;59.56
21803;BME280;18591;47.080;22.214;2023-08-30T05:13:46;98431.38;;;23.91;59.38
21803;BME280;18591;47.080;22.214;2023-08-30T05:15:48;98423.84;;;23.85;59.29
21803;BME280;18591;47.080;22.214;2023-08-30T05:17:51;98426.94;;;23.82;59.17
21803;BME280;18591;47.080;22.214;2023-08-30T05:19:54;98431.53;;;23.74;59.55
21803;BME280;18591;47.080;22.214;2023-08-30T05:21:57;98441.78;;;23.72;59.82
21803;BME280;18591;47.080;22.214;2023-08-30T05:23:59;98431.88;;;23.79;59.75
21803;BME280;18591;47.080;22.214;2023-08-30T05:26:02;98428.13;;;23.80;59.62
21803;BME280;18591;47.080;22.214;2023-08-30T05:28:05;98426.41;;;23.87;59.13
21803;BME280;18591;47.080;22.214;2023-08-30T05:30:10;98435.16;;;23.99;58.98
21803;BME280;18591;47.080;22.214;2023-08-30T05:32:13;98440.81;;;24.05;58.60
21803;BME280;18591;47.080;22.214;2023-08-30T05:34:36;98450.59;;;24.00;58.37
21803;BME280;18591;47.080;22.214;2023-08-30T05:36:50;98456.09;;;24.00;58.30
21803;BME280;18591;47.080;22.214;2023-08-30T05:39:00;98459.16;;;24.13;57.94
21803;BME280;18591;47.080;22.214;2023-08-30T05:41:08;98458.47;;;24.19;57.70
21803;BME280;18591;47.080;22.214;2023-08-30T05:43:11;98451.44;;;24.25;57.82
21803;BME280;18591;47.080;22.214;2023-08-30T05:45:14;98450.41;;;24.34;57.77
21803;BME280;18591;47.080;22.214;2023-08-30T05:47:16;98453.31;;;24.24;57.71
21803;BME280;18591;47.080;22.214;2023-08-30T05:49:21;98464.31;;;24.16;57.65
21803;BME280;18591;47.080;22.214;2023-08-30T05:51:24;98463.09;;;24.27;57.17
21803;BME280;18591;47.080;22.214;2023-08-30T05:53:27;98465.16;;;24.25;57.29
21803;BME280;18591;47.080;22.214;2023-08-30T05:55:29;98463.78;;;24.29;57.52
21803;BME280;18591;47.080;22.214;2023-08-30T05:57:32;98469.13;;;24.30;57.17
21803;BME280;18591;47.080;22.214;2023-08-30T05:59:35;98472.72;;;24.39;57.15
21803;BME280;18591;47.080;22.214;2023-08-30T06:01:38;98466.38;;;24.39;57.13
21803;BME280;18591;47.080;22.214;2023-08-30T06:03:40;98463.81;;;24.45;56.96
21803;BME280;18591;47.080;22.214;2023-08-30T06:05:43;98471.03;;;24.46;57.37
21803;BME280;18591;47.080;22.214;2023-08-30T06:07:45;98459.66;;;24.58;57.04
21803;BME280;18591;47.080;22.214;2023-08-30T06:09:48;98458.63;;;24.67;56.83
21803;BME280;18591;47.080;22.214;2023-08-30T06:11:51;98457.25;;;24.79;56.64
21803;BME280;18591;47.080;22.214;2023-08-30T06:13:53;98467.03;;;24.82;56.57
21803;BME280;18591;47.080;22.214;2023-08-30T06:15:57;98472.66;;;24.88;56.54
21803;BME280;18591;47.080;22.214;2023-08-30T06:17:59;98471.09;;;24.94;56.12
21803;BME280;18591;47.080;22.214;2023-08-30T06:20:02;98479.13;;;25.04;55.96
21803;BME280;18591;47.080;22.214;2023-08-30T06:22:05;98471.91;;;25.11;56.23
21803;BME280;18591;47.080;22.214;2023-08-30T06:24:07;98476.13;;;25.30;55.67
21803;BME280;18591;47.080;22.214;2023-08-30T06:26:10;98477.31;;;25.35;55.06
21803;BME280;18591;47.080;22.214;2023-08-30T06:28:12;98491.06;;;25.35;55.24
21803;BME280;18591;47.080;22.214;2023-08-30T06:30:15;98481.91;;;25.43;55.14
21803;BME280;18591;47.080;22.214;2023-08-30T06:32:18;98476.56;;;25.50;54.98
21803;BME280;18591;47.080;22.214;2023-08-30T06:34:20;98486.66;;;25.57;54.69
21803;BME280;18591;47.080;22.214;2023-08-30T06:36:23;98486.13;;;25.62;54.58
21803;BME280;18591;47.080;22.214;2023-08-30T06:38:26;98488.88;;;25.62;54.49
21803;BME280;18591;47.080;22.214;2023-08-30T06:40:28;98491.75;;;25.69;54.15
21803;BME280;18591;47.080;22.214;2023-08-30T06:42:30;98488.78;;;25.78;53.48
21803;BME280;18591;47.080;22.214;2023-08-30T06:44:33;98478.25;;;25.90;53.63
21803;BME280;18591;47.080;22.214;2023-08-30T06:46:35;98482.09;;;26.04;53.16
21803;BME280;18591;47.080;22.214;2023-08-30T06:48:39;98485.84;;;26.11;53.18
21803;BME280;18591;47.080;22.214;2023-08-30T06:50:42;98485.59;;;26.21;52.48
21803;BME280;18591;47.080;22.214;2023-08-30T06:52:45;98484.47;;;26.30;52.52
21803;BME280;18591;47.080;22.214;2023-08-30T06:54:47;98487.44;;;26.43;52.11
21803;BME280;18591;47.080;22.214;2023-08-30T06:57:02;98483.16;;;26.41;50.98
21803;BME280;18591;47.080;22.214;2023-08-30T06:59:05;98483.25;;;26.56;51.10
21803;BME280;18591;47.080;22.214;2023-08-30T07:01:07;98473.38;;;26.61;51.21
21803;BME280;18591;47.080;22.214;2023-08-30T07:03:10;98480.53;;;26.70;50.71
21803;BME280;18591;47.080;22.214;2023-08-30T07:05:13;98474.25;;;26.77;50.76
21803;BME280;18591;47.080;22.214;2023-08-30T07:07:15;98473.16;;;26.86;49.88
21803;BME280;18591;47.080;22.214;2023-08-30T07:09:19;98477.53;;;26.95;50.35
21803;BME280;18591;47.080;22.214;2023-08-30T07:11:24;98465.16;;;27.06;50.40
21803;BME280;18591;47.080;22.214;2023-08-30T07:13:35;98464.31;;;27.20;50.11
21803;BME280;18591;47.080;22.214;2023-08-30T07:15:41;98471.34;;;27.23;50.12
21803;BME280;18591;47.080;22.214;2023-08-30T07:17:44;98472.41;;;27.36;49.93
21803;BME280;18591;47.080;22.214;2023-08-30T07:19:55;98477.03;;;27.51;49.65
21803;BME280;18591;47.080;22.214;2023-08-30T07:21:58;98473.25;;;27.52;48.59
21803;BME280;18591;47.080;22.214;2023-08-30T07:24:00;98467.22;;;27.63;48.77
21803;BME280;18591;47.080;22.214;2023-08-30T07:26:03;98454.81;;;27.74;48.08
21803;BME280;18591;47.080;22.214;2023-08-30T07:28:05;98453.69;;;27.83;48.50
21803;BME280;18591;47.080;22.214;2023-08-30T07:30:09;98452.38;;;28.00;48.10
21803;BME280;18591;47.080;22.214;2023-08-30T07:32:14;98444.16;;;28.07;47.40
21803;BME280;18591;47.080;22.214;2023-08-30T07:34:17;98443.56;;;28.12;47.77
21803;BME280;18591;47.080;22.214;2023-08-30T07:36:19;98439.63;;;28.21;47.73
21803;BME280;18591;47.080;22.214;2023-08-30T07:38:31;98432.50;;;28.33;47.79
21803;BME280;18591;47.080;22.214;2023-08-30T07:40:34;98444.06;;;28.43;46.76
21803;BME280;18591;47.080;22.214;2023-08-30T07:42:37;98446.09;;;28.56;47.24
21803;BME280;18591;47.080;22.214;2023-08-30T07:44:39;98460.41;;;28.66;46.86
21803;BME280;18591;47.080;22.214;2023-08-30T07:46:42;98455.38;;;28.77;47.10
21803;BME280;18591;47.080;22.214;2023-08-30T07:48:44;98459.91;;;28.84;47.15
21803;BME280;18591;47.080;22.214;2023-08-30T07:50:47;98454.28;;;28.99;46.30
21803;BME280;18591;47.080;22.214;2023-08-30T07:52:49;98460.31;;;29.09;46.53
21803;BME280;18591;47.080;22.214;2023-08-30T07:54:52;98458.69;;;29.22;45.96
21803;BME280;18591;47.080;22.214;2023-08-30T07:56:54;98462.78;;;29.33;45.94
21803;BME280;18591;47.080;22.214;2023-08-30T07:58:57;98464.56;;;29.47;46.45
21803;BME280;18591;47.080;22.214;2023-08-30T08:01:00;98465.47;;;29.61;46.37
21803;BME280;18591;47.080;22.214;2023-08-30T08:03:02;98478.09;;;29.70;46.19
21803;BME280;18591;47.080;22.214;2023-08-30T08:05:05;98482.19;;;29.87;45.21
21803;BME280;18591;47.080;22.214;2023-08-30T08:07:08;98484.78;;;29.95;44.43
21803;BME280;18591;47.080;22.214;2023-08-30T08:09:10;98483.31;;;30.06;44.71
21803;BME280;18591;47.080;22.214;2023-08-30T08:11:13;98489.91;;;30.18;44.54
21803;BME280;18591;47.080;22.214;2023-08-30T08:13:16;98494.03;;;30.29;43.84
21803;BME280;18591;47.080;22.214;2023-08-30T08:15:18;98499.56;;;30.36;44.60
21803;BME280;18591;47.080;22.214;2023-08-30T08:17:21;98500.03;;;30.40;44.46
21803;BME280;18591;47.080;22.214;2023-08-30T08:19:23;98486.59;;;30.43;43.42
21803;BME280;18591;47.080;22.214;2023-08-30T08:21:27;98497.47;;;30.45;43.11
21803;BME280;18591;47.080;22.214;2023-08-30T08:23:29;98503.00;;;30.45;43.27
21803;BME280;18591;47.080;22.214;2023-08-30T08:25:32;98510.25;;;30.46;42.79
21803;BME280;18591;47.080;22.214;2023-08-30T08:27:35;98519.22;;;30.48;43.18
21803;BME280;18591;47.080;22.214;2023-08-30T08:29:38;98515.81;;;30.52;42.58
21803;BME280;18591;47.080;22.214;2023-08-30T08:31:40;98517.94;;;30.50;42.26
21803;BME280;18591;47.080;22.214;2023-08-30T08:33:44;98519.63;;;30.51;42.50
21803;BME280;18591;47.080;22.214;2023-08-30T08:35:48;98528.59;;;30.53;41.54
21803;BME280;18591;47.080;22.214;2023-08-30T08:37:50;98523.69;;;30.55;42.44
21803;BME280;18591;47.080;22.214;2023-08-30T08:39:53;98532.66;;;30.57;41.77
21803;BME280;18591;47.080;22.214;2023-08-30T08:41:55;98536.69;;;30.55;42.07
21803;BME280;18591;47.080;22.214;2023-08-30T08:43:59;98542.47;;;30.60;42.12
21803;BME280;18591;47.080;22.214;2023-08-30T08:46:03;98542.00;;;30.56;41.99
21803;BME280;18591;47.080;22.214;2023-08-30T08:48:09;98547.56;;;30.56;41.86
21803;BME280;18591;47.080;22.214;2023-08-30T08:50:13;98536.25;;;30.51;41.13
21803;BME280;18591;47.080;22.214;2023-08-30T08:52:16;98537.97;;;30.46;40.38
21803;BME280;18591;47.080;22.214;2023-08-30T08:54:31;98527.72;;;30.33;40.90
21803;BME280;18591;47.080;22.214;2023-08-30T08:56:33;98526.41;;;30.29;40.83
21803;BME280;18591;47.080;22.214;2023-08-30T08:58:38;98524.47;;;30.23;40.89
21803;BME280;18591;47.080;22.214;2023-08-30T09:00:42;98520.38;;;30.12;40.84
21803;BME280;18591;47.080;22.214;2023-08-30T09:02:45;98516.31;;;30.08;40.91
21803;BME280;18591;47.080;22.214;2023-08-30T09:04:48;98522.28;;;30.05;40.95
21803;BME280;18591;47.080;22.214;2023-08-30T09:06:51;98511.63;;;30.02;40.81
21803;BME280;18591;47.080;22.214;2023-08-30T09:08:54;98503.50;;;30.00;41.11
21803;BME280;18591;47.080;22.214;2023-08-30T09:10:56;98512.47;;;30.02;40.62
21803;BME280;18591;47.080;22.214;2023-08-30T09:12:59;98516.97;;;30.03;40.57
21803;BME280;18591;47.080;22.214;2023-08-30T09:15:02;98512.28;;;30.04;40.65
21803;BME280;18591;47.080;22.214;2023-08-30T09:17:06;98510.56;;;30.03;40.98
21803;BME280;18591;47.080;22.214;2023-08-30T09:19:08;98518.88;;;30.09;40.48
21803;BME280;18591;47.080;22.214;2023-08-30T09:21:12;98512.72;;;30.21;40.60
21803;BME280;18591;47.080;22.214;2023-08-30T09:23:21;98535.53;;;30.23;40.69
21803;BME280;18591;47.080;22.214;2023-08-30T09:25:25;98539.63;;;30.33;40.57
21803;BME280;18591;47.080;22.214;2023-08-30T09:27:32;98544.28;;;30.20;39.79
21803;BME280;18591;47.080;22.214;2023-08-30T09:29:35;98541.28;;;30.14;40.65
21803;BME280;18591;47.080;22.214;2023-08-30T09:31:39;98532.09;;;30.07;40.89
21803;BME280;18591;47.080;22.214;2023-08-30T09:33:44;98532.69;;;30.03;40.62
21803;BME280;18591;47.080;22.214;2023-08-30T09:35:47;98538.00;;;29.98;41.11
21803;BME280;18591;47.080;22.214;2023-08-30T09:37:49;98535.00;;;29.86;41.74
21803;BME280;18591;47.080;22.214;2023-08-30T09:39:52;98532.56;;;29.69;41.38
21803;BME280;18591;47.080;22.214;2023-08-30T09:41:54;98538.44;;;29.53;40.88
21803;BME280;18591;47.080;22.214;2023-08-30T09:43:57;98544.56;;;29.42;40.70
21803;BME280;18591;47.080;22.214;2023-08-30T09:46:14;98536.63;;;29.32;41.10
21803;BME280;18591;47.080;22.214;2023-08-30T09:48:27;98541.19;;;29.18;41.00
21803;BME280;18591;47.080;22.214;2023-08-30T09:50:33;98534.78;;;29.11;41.11
21803;BME280;18591;47.080;22.214;2023-08-30T09:52:38;98539.25;;;29.12;41.28
21803;BME280;18591;47.080;22.214;2023-08-30T09:54:42;98554.25;;;29.03;40.99
21803;BME280;18591;47.080;22.214;2023-08-30T09:56:46;98571.13;;;28.86;41.61
21803;BME280;18591;47.080;22.214;2023-08-30T09:58:49;98572.47;;;28.69;41.97
21803;BME280;18591;47.080;22.214;2023-08-30T10:00:52;98576.56;;;28.52;42.84
21803;BME280;18591;47.080;22.214;2023-08-30T10:02:58;98582.28;;;28.35;44.22
21803;BME280;18591;47.080;22.214;2023-08-30T10:05:20;98615.13;;;28.23;44.37
21803;BME280;18591;47.080;22.214;2023-08-30T10:07:23;98647.81;;;27.90;45.17
21803;BME280;18591;47.080;22.214;2023-08-30T10:09:27;98629.88;;;27.56;44.80
21803;BME280;18591;47.080;22.214;2023-08-30T10:11:36;98668.56;;;27.19;46.50
21803;BME280;18591;47.080;22.214;2023-08-30T10:13:38;98662.22;;;26.87;47.64
21803;BME280;18591;47.080;22.214;2023-08-30T10:15:45;98679.31;;;26.51;48.66
21803;BME280;18591;47.080;22.214;2023-08-30T10:17:54;98675.88;;;26.26;49.46
21803;BME280;18591;47.080;22.214;2023-08-30T10:19:56;98672.63;;;26.14;49.42
21803;BME280;18591;47.080;22.214;2023-08-30T10:22:06;98668.03;;;26.06;50.05
21803;BME280;18591;47.080;22.214;2023-08-30T10:24:19;98648.44;;;26.01;49.88
21803;BME280;18591;47.080;22.214;2023-08-30T10:26:35;98644.09;;;26.07;49.65
21803;BME280;18591;47.080;22.214;2023-08-30T10:28:40;98641.47;;;26.22;49.46
21803;BME280;18591;47.080;22.214;2023-08-30T10:30:43;98638.13;;;26.35;48.83
21803;BME280;18591;47.080;22.214;2023-08-30T10:32:46;98627.34;;;26.48;48.44
21803;BME280;18591;47.080;22.214;2023-08-30T10:34:50;98613.06;;;26.53;48.74
21803;BME280;18591;47.080;22.214;2023-08-30T10:36:56;98592.56;;;26.55;48.53
21803;BME280;18591;47.080;22.214;2023-08-30T10:39:11;98580.63;;;26.63;48.18
21803;BME280;18591;47.080;22.214;2023-08-30T10:41:23;98567.34;;;26.66;48.13
21803;BME280;18591;47.080;22.214;2023-08-30T10:43:30;98540.75;;;26.74;48.49
21803;BME280;18591;47.080;22.214;2023-08-30T10:45:33;98520.25;;;26.76;48.08
21803;BME280;18591;47.080;22.214;2023-08-30T10:47:36;98518.25;;;26.70;48.35
21803;BME280;18591;47.080;22.214;2023-08-30T10:49:42;98518.34;;;26.62;49.69
21803;BME280;18591;47.080;22.214;2023-08-30T10:51:44;98517.44;;;26.61;48.99
21803;BME280;18591;47.080;22.214;2023-08-30T10:53:58;98506.09;;;26.64;49.55
21803;BME280;18591;47.080;22.214;2023-08-30T10:56:09;98502.94;;;26.67;49.62